createdAt,value
2018-07-27T00:04:19.593Z,21.00
2018-07-27T00:09:24.288Z,21.10
2018-07-27T00:14:28.908Z,21.20
2018-07-27T00:19:34.443Z,21.20
2018-07-27T00:24:39.338Z,21.30
2018-07-27T00:29:44.356Z,21.40
2018-07-27T00:34:49.081Z,21.30
2018-07-27T00:39:53.653Z,21.20
2018-07-27T00:44:59.275Z,21.10
2018-07-27T00:50:04.065Z,21.00
2018-07-27T00:55:08.793Z,20.90
2018-07-27T01:00:13.509Z,20.70
2018-07-27T01:05:18.111Z,20.30
2018-07-27T01:10:22.766Z,20.10
2018-07-27T01:15:27.581Z,19.80
2018-07-27T01:20:32.386Z,19.60
2018-07-27T01:25:37.212Z,19.50
2018-07-27T01:30:42.029Z,19.40
2018-07-27T01:35:46.642Z,19.30
2018-07-27T01:40:51.426Z,19.10
2018-07-27T01:45:56.154Z,19.00
2018-07-27T01:51:01.004Z,19.00
2018-07-27T01:56:05.708Z,18.70
2018-07-27T02:01:10.563Z,18.70
2018-07-27T02:06:15.566Z,18.70
2018-07-27T02:11:20.206Z,18.70
2018-07-27T02:16:24.978Z,18.70
2018-07-27T02:21:29.623Z,18.60
2018-07-27T02:26:34.698Z,18.60
2018-07-27T02:36:44.400Z,18.30
2018-07-27T02:41:50.422Z,18.20
2018-07-27T02:46:55.074Z,18.10
2018-07-27T02:51:59.676Z,18.10
2018-07-27T02:57:04.349Z,18.20
2018-07-27T03:02:08.988Z,18.10
2018-07-27T03:07:13.806Z,18.00
2018-07-27T03:12:18.714Z,17.90
2018-07-27T03:17:23.541Z,17.90
2018-07-27T03:22:29.173Z,17.90
2018-07-27T03:27:34.072Z,17.80
2018-07-27T03:32:39.021Z,17.70
2018-07-27T03:37:43.606Z,17.70
2018-07-27T03:42:48.977Z,17.70
2018-07-27T03:47:54.278Z,17.60
2018-07-27T03:52:58.962Z,17.60
2018-07-27T03:58:03.667Z,17.60
2018-07-27T04:03:09.085Z,17.60
2018-07-27T04:08:13.677Z,17.50
2018-07-27T04:13:18.614Z,17.60
2018-07-27T04:18:23.852Z,17.70
2018-07-27T04:23:28.490Z,17.70
2018-07-27T04:28:33.141Z,17.80
2018-07-27T04:33:37.777Z,17.90
2018-07-27T04:38:42.487Z,18.10
2018-07-27T04:43:47.357Z,18.30
2018-07-27T04:48:52.193Z,18.50
2018-07-27T04:53:57.178Z,18.70
2018-07-27T04:59:01.849Z,18.90
2018-07-27T05:04:06.800Z,19.00
2018-07-27T05:09:22.742Z,19.20
2018-07-27T05:14:27.986Z,19.40
2018-07-27T05:19:32.689Z,19.70
2018-07-27T05:24:37.459Z,19.90
2018-07-27T05:29:42.144Z,20.10
2018-07-27T05:34:46.977Z,20.30
2018-07-27T05:39:51.492Z,20.50
2018-07-27T05:44:56.462Z,20.80
2018-07-27T05:50:01.583Z,21.00
2018-07-27T05:55:06.277Z,21.20
2018-07-27T06:00:11.635Z,21.40
2018-07-27T06:05:16.634Z,21.40
2018-07-27T06:10:21.243Z,21.50
2018-07-27T06:15:26.469Z,21.60
2018-07-27T06:20:31.259Z,21.70
2018-07-27T06:25:36.001Z,21.90
2018-07-27T06:30:40.827Z,22.20
2018-07-27T06:35:46.493Z,22.40
2018-07-27T06:40:52.021Z,22.60
2018-07-27T06:45:57.105Z,22.80
2018-07-27T06:51:01.791Z,22.90
2018-07-27T06:56:06.663Z,22.90
2018-07-27T07:01:12.015Z,22.70
2018-07-27T07:06:16.745Z,23.00
2018-07-27T07:11:21.611Z,23.10
2018-07-27T07:16:26.221Z,23.20
2018-07-27T07:21:31.718Z,23.10
2018-07-27T07:26:36.817Z,23.20
2018-07-27T07:31:41.581Z,23.50
2018-07-27T07:36:46.237Z,23.50
2018-07-27T07:41:51.844Z,23.70
2018-07-27T07:46:56.777Z,23.60
2018-07-27T07:52:01.582Z,23.70
2018-07-27T07:57:06.351Z,23.80
2018-07-27T08:02:11.060Z,24.00
2018-07-27T08:07:15.822Z,24.10
2018-07-27T08:12:21.626Z,24.50
2018-07-27T08:17:26.447Z,24.70
2018-07-27T08:22:31.017Z,24.80
2018-07-27T08:27:35.932Z,24.90
2018-07-27T08:32:40.875Z,24.60
2018-07-27T08:37:45.763Z,24.40
2018-07-27T08:42:50.480Z,24.70
2018-07-27T08:47:55.382Z,24.60
2018-07-27T08:53:00.089Z,24.70
2018-07-27T08:58:04.918Z,24.60
2018-07-27T09:03:09.885Z,24.80
2018-07-27T09:08:14.609Z,24.80
2018-07-27T09:13:19.145Z,25.10
2018-07-27T09:18:23.899Z,25.70
2018-07-27T09:23:28.854Z,25.40
2018-07-27T09:28:33.561Z,25.80
2018-07-27T09:33:38.249Z,25.50
2018-07-27T09:38:43.138Z,26.20
2018-07-27T09:43:47.880Z,26.50
2018-07-27T09:48:53.681Z,26.50
2018-07-27T09:53:58.753Z,26.30
2018-07-27T09:59:03.919Z,26.30
2018-07-27T10:04:08.634Z,26.20
2018-07-27T10:09:13.951Z,26.30
2018-07-27T10:14:19.036Z,26.70
2018-07-27T10:19:24.022Z,27.10
2018-07-27T10:24:29.052Z,27.10
2018-07-27T10:29:34.290Z,27.30
2018-07-27T10:34:39.323Z,27.40
2018-07-27T10:39:44.386Z,27.70
2018-07-27T10:44:49.307Z,27.80
2018-07-27T10:49:54.027Z,28.10
2018-07-27T10:54:58.980Z,28.20
2018-07-27T11:00:04.028Z,28.40
2018-07-27T11:05:09.364Z,29.00
2018-07-27T11:10:14.244Z,29.10
2018-07-27T11:15:18.977Z,28.90
2018-07-27T11:20:23.669Z,29.10
2018-07-27T11:25:28.180Z,29.20
2018-07-27T11:30:32.977Z,29.20
2018-07-27T11:35:37.597Z,29.60
2018-07-27T11:40:42.567Z,30.20
2018-07-27T11:45:47.151Z,30.40
2018-07-27T11:50:51.893Z,30.20
2018-07-27T11:55:56.669Z,31.70
2018-07-27T12:01:01.423Z,31.90
2018-07-27T12:06:06.296Z,32.80
2018-07-27T12:11:11.177Z,33.70
2018-07-27T12:16:16.184Z,34.10
2018-07-27T12:21:21.008Z,34.90
2018-07-27T12:26:25.555Z,35.50
2018-07-27T12:31:30.670Z,36.60
2018-07-27T12:36:35.825Z,37.80
2018-07-27T12:41:41.778Z,38.80
2018-07-27T12:46:46.349Z,38.70
2018-07-27T12:51:51.321Z,37.60
2018-07-27T12:56:55.926Z,36.90
2018-07-27T13:02:00.667Z,36.60
2018-07-27T13:07:05.579Z,35.80
2018-07-27T13:12:10.260Z,36.20
2018-07-27T13:17:14.877Z,37.50
2018-07-27T13:22:20.477Z,37.60
2018-07-27T13:27:25.672Z,37.50
2018-07-27T13:32:31.621Z,37.10
2018-07-27T13:37:37.144Z,38.60
2018-07-27T13:42:41.993Z,39.60
2018-07-27T13:47:46.773Z,40.70
2018-07-27T13:52:51.602Z,41.30
2018-07-27T13:57:56.287Z,41.90
2018-07-27T14:08:05.309Z,39.90
2018-07-27T14:13:10.193Z,39.20
2018-07-27T14:18:14.901Z,37.80
2018-07-27T14:23:19.908Z,37.10
2018-07-27T14:28:24.716Z,37.10
2018-07-27T14:33:29.503Z,36.70
2018-07-27T14:38:34.457Z,36.30
2018-07-27T14:43:39.425Z,36.50
2018-07-27T14:48:44.706Z,37.60
2018-07-27T14:53:49.461Z,38.00
2018-07-27T14:58:54.306Z,37.40
2018-07-27T15:03:58.956Z,38.10
2018-07-27T15:09:03.800Z,39.40
2018-07-27T15:14:08.982Z,40.30
2018-07-27T15:19:14.201Z,41.80
2018-07-27T15:24:18.920Z,39.60
2018-07-27T15:29:23.999Z,37.90
2018-07-27T15:34:29.361Z,36.80
2018-07-27T15:39:34.380Z,36.10
2018-07-27T15:44:39.433Z,36.60
2018-07-27T15:49:44.350Z,37.30
2018-07-27T15:54:49.481Z,38.20
2018-07-27T15:59:55.029Z,37.60
2018-07-27T16:05:00.116Z,38.10
2018-07-27T16:10:05.356Z,38.00
2018-07-27T16:15:10.046Z,38.00
2018-07-27T16:20:14.812Z,37.10
2018-07-27T16:25:20.014Z,36.30
2018-07-27T16:30:25.004Z,36.60
2018-07-27T16:35:29.678Z,37.00
2018-07-27T16:40:34.415Z,37.60
2018-07-27T16:45:39.109Z,37.30
2018-07-27T16:50:44.561Z,37.30
2018-07-27T16:55:49.700Z,36.70
2018-07-27T17:00:54.409Z,36.70
2018-07-27T17:05:59.394Z,34.50
2018-07-27T17:11:04.404Z,32.80
2018-07-27T17:16:09.129Z,32.30
2018-07-27T17:21:14.035Z,32.00
2018-07-27T17:26:19.325Z,31.80
2018-07-27T17:31:24.804Z,31.50
2018-07-27T17:36:30.876Z,31.20
2018-07-27T17:41:35.942Z,31.00
2018-07-27T17:46:40.869Z,30.80
2018-07-27T17:51:46.425Z,30.60
2018-07-27T17:56:51.548Z,30.40
2018-07-27T18:01:57.316Z,30.10
2018-07-27T18:07:02.279Z,29.90
2018-07-27T18:12:07.600Z,29.70
2018-07-27T18:17:12.764Z,29.50
2018-07-27T18:22:18.888Z,29.40
2018-07-27T18:27:24.017Z,29.10
2018-07-27T18:32:30.089Z,28.90
2018-07-27T18:37:36.011Z,28.70
2018-07-27T18:44:05.422Z,28.30
2018-07-27T18:49:11.947Z,27.80
2018-07-27T18:54:17.425Z,27.40
2018-07-27T18:59:22.311Z,27.20
2018-07-27T19:04:27.321Z,27.00
2018-07-27T19:09:32.688Z,26.70
2018-07-27T19:14:38.316Z,26.60
2018-07-27T19:19:42.936Z,26.30
2018-07-27T19:24:48.133Z,26.00
2018-07-27T19:34:57.602Z,25.50
2018-07-27T19:40:02.388Z,25.20
2018-07-27T19:45:08.607Z,25.10
2018-07-27T19:50:13.862Z,25.00
2018-07-27T19:55:18.943Z,24.80
2018-07-27T20:00:23.813Z,24.80
2018-07-27T20:05:28.568Z,24.70
2018-07-27T20:10:33.401Z,24.70
2018-07-27T20:15:38.388Z,24.60
2018-07-27T20:20:43.318Z,24.60
2018-07-27T20:25:48.371Z,24.70
2018-07-27T20:30:53.594Z,24.70
2018-07-27T20:35:58.508Z,24.80
2018-07-27T20:41:03.879Z,24.80
2018-07-27T20:46:08.717Z,24.70
2018-07-27T20:51:14.527Z,24.70
2018-07-27T20:56:19.804Z,24.80
2018-07-27T21:01:25.404Z,24.80
2018-07-27T21:06:30.470Z,24.80
2018-07-27T21:11:35.085Z,24.80
2018-07-27T21:16:40.070Z,24.80
2018-07-27T21:21:44.973Z,24.80
2018-07-27T21:26:49.881Z,24.80
2018-07-27T21:31:54.802Z,24.70
2018-07-27T21:36:59.611Z,24.70
2018-07-27T21:42:04.464Z,24.60
2018-07-27T21:47:09.161Z,24.70
2018-07-27T21:52:14.165Z,24.70
2018-07-27T21:57:19.325Z,24.70
2018-07-27T22:02:24.194Z,24.60
2018-07-27T22:07:28.664Z,24.60
2018-07-27T22:12:34.332Z,24.50
2018-07-27T22:17:39.991Z,24.50
2018-07-27T22:22:44.929Z,24.40
2018-07-27T22:27:49.870Z,24.30
2018-07-27T22:32:54.715Z,24.10
2018-07-27T22:37:59.467Z,23.70
2018-07-27T22:43:05.837Z,23.50
2018-07-27T22:48:10.568Z,23.50
2018-07-27T22:53:15.172Z,23.30
2018-07-27T22:58:20.030Z,23.20
2018-07-27T23:03:25.857Z,23.20
2018-07-27T23:08:30.736Z,23.00
2018-07-27T23:13:35.681Z,23.00
2018-07-27T23:18:40.550Z,23.00
2018-07-27T23:23:45.235Z,22.70
2018-07-27T23:28:50.107Z,22.40
2018-07-27T23:33:55.216Z,22.20
2018-07-27T23:39:00.668Z,22.10
2018-07-27T23:44:05.716Z,21.90
2018-07-27T23:49:10.566Z,21.70
2018-07-27T23:54:15.421Z,21.50
